createdAt,value
2019-03-28T00:00:16.712Z,2.91
2019-03-28T00:02:50.081Z,2.85
2019-03-28T00:05:23.486Z,2.81
2019-03-28T00:07:56.922Z,2.83
2019-03-28T00:10:30.317Z,2.72
2019-03-28T00:13:03.768Z,2.64
2019-03-28T00:15:37.118Z,2.51
2019-03-28T00:18:10.484Z,2.59
2019-03-28T00:20:43.832Z,2.60
2019-03-28T00:23:19.279Z,2.57
2019-03-28T00:25:52.703Z,2.48
2019-03-28T00:28:26.076Z,2.38
2019-03-28T00:30:59.574Z,2.25
2019-03-28T00:33:33.087Z,2.19
2019-03-28T00:36:06.500Z,2.19
2019-03-28T00:38:39.929Z,2.17
2019-03-28T00:41:13.406Z,2.13
2019-03-28T00:43:46.834Z,2.10
2019-03-28T00:46:20.187Z,2.11
2019-03-28T00:48:53.566Z,2.03
2019-03-28T00:51:26.904Z,1.95
2019-03-28T00:54:00.241Z,1.96
2019-03-28T00:56:46.447Z,2.05
2019-03-28T00:59:08.669Z,2.08
2019-03-28T01:01:42.082Z,2.03
2019-03-28T01:04:15.585Z,2.03
2019-03-28T01:06:48.939Z,1.96
2019-03-28T01:09:22.281Z,1.92
2019-03-28T01:11:55.685Z,1.94
2019-03-28T01:14:29.113Z,1.90
2019-03-28T01:17:02.530Z,1.94
2019-03-28T01:19:35.903Z,1.96
2019-03-28T01:22:09.312Z,1.92
2019-03-28T01:24:42.752Z,1.81
2019-03-28T01:27:16.168Z,1.69
2019-03-28T01:29:49.533Z,1.69
2019-03-28T01:32:22.938Z,1.63
2019-03-28T01:34:56.288Z,1.64
2019-03-28T01:37:29.641Z,1.53
2019-03-28T01:40:03.079Z,1.50
2019-03-28T01:42:36.408Z,1.46
2019-03-28T01:45:10.232Z,1.37
2019-03-28T01:47:43.606Z,1.25
2019-03-28T01:50:16.943Z,1.22
2019-03-28T01:52:50.376Z,1.20
2019-03-28T01:55:23.764Z,1.17
2019-03-28T01:57:57.185Z,1.09
2019-03-28T02:00:30.584Z,0.98
2019-03-28T02:03:03.992Z,0.97
2019-03-28T02:05:37.443Z,0.98
2019-03-28T02:08:10.879Z,1.09
2019-03-28T02:10:44.248Z,1.04
2019-03-28T02:13:17.579Z,1.05
2019-03-28T02:15:50.948Z,1.01
2019-03-28T02:18:24.276Z,1.05
2019-03-28T02:20:57.613Z,1.03
2019-03-28T02:23:31.046Z,1.04
2019-03-28T02:26:04.466Z,1.07
2019-03-28T02:28:37.829Z,1.05
2019-03-28T02:31:11.168Z,1.04
2019-03-28T02:33:44.533Z,0.94
2019-03-28T02:36:17.934Z,0.93
2019-03-28T02:38:51.375Z,0.89
2019-03-28T02:41:24.801Z,0.94
2019-03-28T02:43:58.236Z,0.94
2019-03-28T02:46:31.590Z,0.87
2019-03-28T02:49:05.059Z,0.79
2019-03-28T02:51:38.395Z,0.77
2019-03-28T02:54:11.822Z,0.71
2019-03-28T02:56:45.227Z,0.63
2019-03-28T02:59:18.666Z,0.52
2019-03-28T03:01:52.071Z,0.43
2019-03-28T03:04:25.471Z,0.36
2019-03-28T03:06:58.848Z,0.35
2019-03-28T03:09:32.360Z,0.27
2019-03-28T03:12:05.788Z,0.30
2019-03-28T03:14:39.117Z,0.37
2019-03-28T03:17:12.524Z,0.49
2019-03-28T03:19:45.989Z,0.54
2019-03-28T03:22:19.316Z,0.61
2019-03-28T03:24:52.762Z,0.65
2019-03-28T03:27:26.119Z,0.61
2019-03-28T03:29:59.501Z,0.57
2019-03-28T03:32:32.820Z,0.42
2019-03-28T03:35:06.256Z,0.41
2019-03-28T03:37:39.668Z,0.31
2019-03-28T03:40:13.463Z,0.29
2019-03-28T03:42:46.809Z,0.31
2019-03-28T03:45:20.191Z,0.35
2019-03-28T03:47:53.534Z,0.37
2019-03-28T03:50:29.977Z,0.31
2019-03-28T03:53:03.312Z,0.38
2019-03-28T03:55:36.737Z,0.42
2019-03-28T03:58:16.103Z,0.44
2019-03-28T04:00:45.217Z,0.46
2019-03-28T04:03:18.658Z,0.50
2019-03-28T04:05:52.101Z,0.45
2019-03-28T04:08:26.957Z,0.49
2019-03-28T04:11:00.479Z,0.45
2019-03-28T04:13:33.811Z,0.40
2019-03-28T04:16:07.190Z,0.32
2019-03-28T04:18:40.589Z,0.32
2019-03-28T04:21:13.968Z,0.35
2019-03-28T04:23:47.322Z,0.38
2019-03-28T04:26:20.746Z,0.52
2019-03-28T04:28:54.089Z,0.60
2019-03-28T04:31:27.459Z,0.67
2019-03-28T04:34:07.014Z,0.74
2019-03-28T04:36:35.972Z,0.70
2019-03-28T04:39:09.379Z,0.53
2019-03-28T04:41:42.767Z,0.38
2019-03-28T04:44:16.128Z,0.34
2019-03-28T04:46:49.573Z,0.29
2019-03-28T04:49:22.972Z,0.26
2019-03-28T04:51:56.419Z,0.19
2019-03-28T04:54:29.804Z,0.26
2019-03-28T04:57:03.215Z,0.34
2019-03-28T04:59:36.581Z,0.35
2019-03-28T05:02:10.026Z,0.38
2019-03-28T05:04:43.398Z,0.35
2019-03-28T05:07:16.746Z,0.35
2019-03-28T05:09:50.360Z,0.32
2019-03-28T05:12:23.866Z,0.24
2019-03-28T05:14:57.298Z,0.32
2019-03-28T05:17:30.637Z,0.45
2019-03-28T05:20:08.023Z,0.44
2019-03-28T05:22:41.371Z,0.42
2019-03-28T05:25:14.803Z,0.31
2019-03-28T05:27:48.235Z,0.24
2019-03-28T05:30:21.703Z,0.25
2019-03-28T05:32:55.140Z,0.33
2019-03-28T05:35:28.516Z,0.41
2019-03-28T05:38:02.450Z,0.48
2019-03-28T05:40:36.466Z,0.51
2019-03-28T05:43:10.193Z,0.52
2019-03-28T05:45:44.459Z,0.64
2019-03-28T05:48:18.688Z,0.79
2019-03-28T05:50:52.129Z,0.99
2019-03-28T05:53:25.479Z,1.36
2019-03-28T05:55:58.829Z,1.34
2019-03-28T05:58:32.252Z,1.31
2019-03-28T06:01:06.362Z,1.28
2019-03-28T06:03:39.865Z,1.35
2019-03-28T06:06:13.173Z,1.36
2019-03-28T06:08:46.629Z,1.40
2019-03-28T06:11:20.045Z,1.54
2019-03-28T06:13:53.416Z,1.78
2019-03-28T06:16:26.762Z,1.91
2019-03-28T06:19:00.195Z,2.02
2019-03-28T06:21:33.559Z,2.20
2019-03-28T06:24:07.066Z,2.31
2019-03-28T06:26:41.390Z,2.42
2019-03-28T06:29:23.761Z,2.45
2019-03-28T06:31:55.571Z,2.41
2019-03-28T06:34:25.015Z,2.38
2019-03-28T06:36:58.442Z,2.49
2019-03-28T06:39:31.873Z,2.61
2019-03-28T06:42:05.314Z,3.03
2019-03-28T06:44:38.666Z,3.08
2019-03-28T06:47:12.010Z,3.01
2019-03-28T06:49:45.385Z,3.15
2019-03-28T06:52:18.754Z,3.30
2019-03-28T06:54:52.111Z,3.57
2019-03-28T06:57:25.491Z,3.58
2019-03-28T06:59:58.862Z,3.64
2019-03-28T07:02:32.239Z,3.60
2019-03-28T07:05:06.118Z,3.91
2019-03-28T07:07:39.556Z,3.86
2019-03-28T07:10:13.032Z,3.56
2019-03-28T07:12:46.491Z,3.89
2019-03-28T07:15:20.519Z,4.06
2019-03-28T07:17:54.049Z,3.79
2019-03-28T07:20:27.408Z,4.16
2019-03-28T07:23:00.847Z,4.53
2019-03-28T07:25:34.284Z,4.28
2019-03-28T07:28:07.713Z,4.41
2019-03-28T07:30:41.135Z,4.37
2019-03-28T07:33:14.484Z,4.96
2019-03-28T07:35:47.919Z,4.76
2019-03-28T07:38:21.346Z,4.57
2019-03-28T07:40:54.719Z,4.56
2019-03-28T07:43:28.200Z,4.96
2019-03-28T07:46:01.614Z,5.62
2019-03-28T07:48:35.037Z,5.55
2019-03-28T07:51:08.371Z,5.78
2019-03-28T07:53:41.870Z,5.61
2019-03-28T07:56:15.204Z,5.74
2019-03-28T07:58:48.642Z,5.63
2019-03-28T08:01:21.979Z,5.88
2019-03-28T08:03:55.413Z,5.80
2019-03-28T08:06:28.767Z,6.08
2019-03-28T08:09:02.149Z,6.25
2019-03-28T08:11:35.594Z,5.91
2019-03-28T08:14:09.018Z,5.85
2019-03-28T08:16:42.365Z,6.17
2019-03-28T08:19:15.796Z,6.63
2019-03-28T08:21:49.217Z,7.52
2019-03-28T08:24:22.599Z,7.61
2019-03-28T08:26:56.001Z,7.27
2019-03-28T08:29:29.365Z,7.28
2019-03-28T08:32:04.362Z,7.85
2019-03-28T08:34:37.774Z,7.75
2019-03-28T08:37:11.345Z,7.94
2019-03-28T08:39:45.059Z,7.79
2019-03-28T08:42:19.582Z,7.94
2019-03-28T08:44:53.311Z,8.21
2019-03-28T08:47:26.636Z,8.22
2019-03-28T08:49:59.999Z,8.75
2019-03-28T08:52:33.344Z,8.62
2019-03-28T08:55:10.004Z,8.68
2019-03-28T08:57:43.276Z,8.76
2019-03-28T09:00:17.492Z,8.90
2019-03-28T09:02:52.524Z,9.49
2019-03-28T09:05:25.904Z,9.48
2019-03-28T09:07:59.399Z,9.40
2019-03-28T09:10:32.831Z,10.02
2019-03-28T09:13:06.266Z,10.30
2019-03-28T09:15:43.889Z,10.52
2019-03-28T09:18:14.718Z,10.54
2019-03-28T09:20:48.155Z,10.49
2019-03-28T09:23:21.521Z,11.03
2019-03-28T09:25:54.966Z,10.92
2019-03-28T09:28:28.336Z,11.12
2019-03-28T09:31:01.889Z,10.73
2019-03-28T09:33:35.309Z,10.87
2019-03-28T09:36:08.693Z,11.43
2019-03-28T09:38:42.178Z,11.70
2019-03-28T09:41:15.732Z,11.63
2019-03-28T09:43:55.145Z,11.86
2019-03-28T09:46:24.264Z,11.57
2019-03-28T09:48:57.675Z,11.59
2019-03-28T09:51:31.054Z,11.95
2019-03-28T09:54:04.585Z,12.22
2019-03-28T09:56:38.017Z,11.73
2019-03-28T09:59:11.349Z,12.10
2019-03-28T10:01:44.790Z,12.42
2019-03-28T10:04:18.219Z,12.41
2019-03-28T10:06:51.615Z,12.33
2019-03-28T10:09:24.998Z,12.48
2019-03-28T10:11:58.428Z,12.80
2019-03-28T10:14:31.833Z,13.00
2019-03-28T10:17:05.350Z,13.13
2019-03-28T10:19:38.764Z,12.96
2019-03-28T10:22:12.218Z,12.38
2019-03-28T10:24:45.655Z,12.96
2019-03-28T10:27:19.468Z,13.27
2019-03-28T10:29:52.984Z,13.06
2019-03-28T10:32:26.368Z,12.80
2019-03-28T10:34:59.785Z,12.96
2019-03-28T10:37:33.150Z,13.05
2019-03-28T10:40:07.621Z,13.23
2019-03-28T10:42:40.970Z,13.07
2019-03-28T10:45:14.465Z,13.38
2019-03-28T10:47:47.897Z,13.33
2019-03-28T10:50:21.313Z,13.34
2019-03-28T10:52:54.824Z,13.32
2019-03-28T10:55:28.262Z,13.48
2019-03-28T10:58:01.700Z,13.61
2019-03-28T11:00:35.282Z,13.87
2019-03-28T11:03:08.731Z,13.75
2019-03-28T11:05:42.067Z,13.71
2019-03-28T11:08:16.553Z,13.45
2019-03-28T11:10:50.006Z,13.24
2019-03-28T11:13:23.366Z,13.42
2019-03-28T11:15:56.728Z,13.37
2019-03-28T11:18:30.165Z,13.33
2019-03-28T11:21:03.565Z,13.82
2019-03-28T11:23:36.950Z,13.54
2019-03-28T11:26:10.281Z,13.99
2019-03-28T11:28:43.634Z,13.53
2019-03-28T11:31:17.664Z,13.80
2019-03-28T11:33:53.919Z,13.74
2019-03-28T11:36:27.258Z,13.74
2019-03-28T11:39:02.880Z,13.82
2019-03-28T11:41:35.819Z,14.02
2019-03-28T11:44:09.255Z,13.96
2019-03-28T11:46:42.668Z,14.17
2019-03-28T11:49:16.037Z,13.99
2019-03-28T11:51:49.391Z,14.69
2019-03-28T11:54:22.877Z,14.29
2019-03-28T11:56:56.245Z,14.53
2019-03-28T11:59:29.612Z,14.47
2019-03-28T12:02:19.108Z,14.47
2019-03-28T12:04:41.192Z,14.25
2019-03-28T12:07:14.579Z,14.38
2019-03-28T12:09:47.959Z,14.62
2019-03-28T12:12:21.389Z,14.91
2019-03-28T12:14:54.834Z,14.84
2019-03-28T12:17:28.300Z,14.91
2019-03-28T12:20:01.651Z,14.81
2019-03-28T12:22:35.120Z,14.44
2019-03-28T12:25:09.031Z,14.69
2019-03-28T12:27:42.521Z,14.97
2019-03-28T12:30:16.481Z,14.98
2019-03-28T12:32:50.813Z,14.82
2019-03-28T12:35:24.227Z,15.08
2019-03-28T12:37:57.644Z,15.04
2019-03-28T12:40:31.147Z,15.06
2019-03-28T12:43:04.574Z,15.13
2019-03-28T12:45:38.010Z,14.96
2019-03-28T12:48:11.441Z,14.93
2019-03-28T12:50:58.041Z,14.93
2019-03-28T12:53:19.930Z,15.51
2019-03-28T12:55:54.284Z,15.15
2019-03-28T12:58:27.631Z,15.15
2019-03-28T13:01:01.070Z,15.22
2019-03-28T13:03:44.729Z,15.40
2019-03-28T13:06:09.552Z,15.49
2019-03-28T13:08:43.755Z,15.49
2019-03-28T13:11:17.354Z,15.50
2019-03-28T13:13:50.806Z,15.38
2019-03-28T13:16:24.195Z,15.38
2019-03-28T13:18:57.537Z,15.64
2019-03-28T13:21:30.902Z,15.33
2019-03-28T13:24:07.667Z,15.44
2019-03-28T13:26:39.563Z,15.39
2019-03-28T13:29:12.989Z,15.05
2019-03-28T13:31:46.357Z,15.22
2019-03-28T13:34:19.700Z,15.73
2019-03-28T13:36:53.128Z,16.21
2019-03-28T13:39:26.449Z,15.73
2019-03-28T13:41:59.811Z,15.98
2019-03-28T13:44:33.231Z,15.38
2019-03-28T13:47:06.672Z,15.46
2019-03-28T13:49:40.110Z,15.05
2019-03-28T13:52:13.468Z,15.11
2019-03-28T13:54:46.891Z,15.44
2019-03-28T13:57:20.277Z,15.13
2019-03-28T13:59:53.622Z,15.29
2019-03-28T14:02:27.020Z,15.37
2019-03-28T14:05:00.371Z,15.06
2019-03-28T14:07:33.726Z,15.24
2019-03-28T14:10:07.520Z,14.92
2019-03-28T14:12:40.969Z,15.06
2019-03-28T14:15:14.450Z,15.41
2019-03-28T14:17:47.889Z,15.45
2019-03-28T14:20:22.430Z,15.19
2019-03-28T14:22:55.988Z,15.04
2019-03-28T14:25:29.344Z,14.87
2019-03-28T14:28:02.686Z,15.34
2019-03-28T14:30:39.338Z,15.06
2019-03-28T14:33:14.335Z,15.14
2019-03-28T14:35:46.292Z,15.49
2019-03-28T14:38:19.645Z,15.37
2019-03-28T14:40:52.992Z,15.20
2019-03-28T14:43:26.477Z,15.13
2019-03-28T14:45:59.982Z,15.00
2019-03-28T14:48:33.394Z,15.12
2019-03-28T14:51:06.777Z,14.98
2019-03-28T14:53:40.216Z,15.22
2019-03-28T14:56:13.638Z,15.22
2019-03-28T14:58:47.903Z,15.27
2019-03-28T15:01:21.359Z,15.10
2019-03-28T15:03:54.705Z,15.11
2019-03-28T15:06:28.155Z,15.04
2019-03-28T15:09:01.478Z,15.12
2019-03-28T15:11:34.851Z,14.97
2019-03-28T15:14:08.203Z,15.36
2019-03-28T15:16:41.666Z,15.38
2019-03-28T15:19:15.053Z,15.33
2019-03-28T15:21:48.487Z,15.24
2019-03-28T15:24:21.895Z,15.32
2019-03-28T15:26:55.443Z,14.78
2019-03-28T15:29:28.730Z,14.74
2019-03-28T15:32:02.144Z,14.55
2019-03-28T15:34:35.546Z,14.61
2019-03-28T15:37:09.059Z,14.65
2019-03-28T15:39:42.547Z,14.55
2019-03-28T15:42:15.967Z,14.56
2019-03-28T15:44:49.376Z,14.55
2019-03-28T15:47:22.817Z,14.55
2019-03-28T15:49:56.182Z,14.49
2019-03-28T15:52:29.649Z,14.41
2019-03-28T15:55:03.119Z,14.43
2019-03-28T15:57:36.489Z,14.50
2019-03-28T16:00:10.335Z,14.50
2019-03-28T16:02:43.778Z,14.51
2019-03-28T16:05:17.165Z,14.52
2019-03-28T16:07:50.553Z,14.58
2019-03-28T16:10:23.893Z,14.48
2019-03-28T16:12:57.587Z,14.48
2019-03-28T16:15:31.023Z,14.43
2019-03-28T16:18:04.445Z,14.61
2019-03-28T16:20:37.803Z,14.72
2019-03-28T16:23:11.238Z,14.64
2019-03-28T16:25:44.604Z,14.64
2019-03-28T16:28:17.969Z,14.56
2019-03-28T16:30:51.400Z,14.54
2019-03-28T16:33:24.887Z,14.49
2019-03-28T16:35:58.245Z,14.57
2019-03-28T16:38:33.017Z,14.52
2019-03-28T16:41:06.419Z,14.43
2019-03-28T16:43:39.811Z,14.35
2019-03-28T16:46:13.288Z,14.33
2019-03-28T16:48:46.720Z,14.17
2019-03-28T16:51:20.075Z,14.10
2019-03-28T16:53:53.577Z,13.99
2019-03-28T16:56:26.901Z,13.96
2019-03-28T16:59:00.289Z,13.96
2019-03-28T17:01:34.649Z,13.91
2019-03-28T17:04:20.532Z,13.86
2019-03-28T17:06:49.453Z,13.82
2019-03-28T17:09:23.461Z,13.76
2019-03-28T17:11:59.098Z,13.72
2019-03-28T17:14:34.696Z,13.68
2019-03-28T17:17:08.783Z,13.66
2019-03-28T17:19:42.861Z,13.66
2019-03-28T17:22:16.579Z,13.61
2019-03-28T17:24:50.040Z,13.57
2019-03-28T17:27:23.458Z,13.52
2019-03-28T17:29:58.219Z,13.48
2019-03-28T17:32:41.935Z,13.44
2019-03-28T17:35:15.351Z,13.36
2019-03-28T17:37:48.712Z,13.31
2019-03-28T17:40:22.197Z,13.29
2019-03-28T17:42:55.612Z,13.21
2019-03-28T17:45:29.130Z,13.14
2019-03-28T17:48:02.812Z,13.09
2019-03-28T17:50:36.541Z,13.09
2019-03-28T17:53:09.901Z,13.07
2019-03-28T17:55:45.459Z,13.01
2019-03-28T17:58:19.037Z,12.99
2019-03-28T18:00:52.584Z,12.93
2019-03-28T18:03:31.513Z,12.87
2019-03-28T18:06:02.344Z,12.81
2019-03-28T18:08:35.675Z,12.80
2019-03-28T18:11:09.309Z,12.74
2019-03-28T18:13:42.974Z,12.67
2019-03-28T18:16:18.122Z,12.61
2019-03-28T18:18:51.569Z,12.54
2019-03-28T18:21:25.036Z,12.55
2019-03-28T18:23:58.469Z,12.56
2019-03-28T18:26:31.995Z,12.60
2019-03-28T18:29:05.491Z,12.63
2019-03-28T18:31:50.436Z,12.65
2019-03-28T18:34:45.112Z,12.63
2019-03-28T18:43:19.564Z,12.54
2019-03-28T18:45:59.850Z,12.55
2019-03-28T18:51:49.817Z,12.50
2019-03-28T18:54:23.816Z,12.50
2019-03-28T18:56:57.169Z,12.50
2019-03-28T18:59:30.848Z,12.55
2019-03-28T19:02:19.049Z,12.58
2019-03-28T19:04:53.221Z,12.57
2019-03-28T19:07:26.673Z,12.56
2019-03-28T19:10:00.400Z,12.52
2019-03-28T19:12:36.261Z,12.55
2019-03-28T19:15:09.995Z,12.52
2019-03-28T19:17:43.529Z,12.53
2019-03-28T19:20:17.043Z,12.45
2019-03-28T19:22:50.504Z,12.46
2019-03-28T19:25:23.942Z,12.41
2019-03-28T19:27:57.357Z,12.28
2019-03-28T19:30:32.812Z,12.26
2019-03-28T19:33:07.083Z,12.18
2019-03-28T19:35:41.237Z,12.11
2019-03-28T19:38:14.792Z,12.02
2019-03-28T19:40:48.244Z,11.93
2019-03-28T19:43:22.968Z,11.83
2019-03-28T19:45:56.679Z,11.80
2019-03-28T19:48:30.167Z,11.71
2019-03-28T19:51:03.596Z,11.63
2019-03-28T19:53:37.014Z,11.50
2019-03-28T19:56:10.365Z,11.42
2019-03-28T19:58:43.785Z,11.38
2019-03-28T20:01:18.091Z,11.24
2019-03-28T20:03:52.506Z,11.37
2019-03-28T20:06:26.532Z,11.30
2019-03-28T20:08:59.955Z,11.21
2019-03-28T20:11:36.856Z,11.22
2019-03-28T20:14:10.448Z,11.21
2019-03-28T20:16:43.938Z,11.17
2019-03-28T20:19:17.939Z,11.19
2019-03-28T20:21:51.381Z,11.05
2019-03-28T20:24:25.615Z,11.00
2019-03-28T20:26:59.393Z,10.96
2019-03-28T20:29:33.500Z,10.82
2019-03-28T20:32:08.329Z,10.84
2019-03-28T20:34:41.921Z,10.78
2019-03-28T20:37:15.367Z,10.75
2019-03-28T20:39:48.808Z,10.59
2019-03-28T20:42:22.311Z,10.58
2019-03-28T20:44:55.722Z,10.61
2019-03-28T20:47:29.108Z,10.54
2019-03-28T20:50:02.870Z,10.45
2019-03-28T20:52:36.292Z,10.35
2019-03-28T20:55:09.861Z,10.22
2019-03-28T20:57:43.359Z,10.19
2019-03-28T21:00:20.143Z,10.03
2019-03-28T21:02:55.564Z,10.04
2019-03-28T21:05:29.026Z,9.95
2019-03-28T21:08:03.270Z,9.74
2019-03-28T21:10:40.408Z,9.68
2019-03-28T21:13:13.920Z,9.65
2019-03-28T21:15:47.966Z,9.45
2019-03-28T21:18:21.584Z,9.36
2019-03-28T21:20:54.922Z,9.36
2019-03-28T21:23:28.348Z,9.31
2019-03-28T21:26:01.685Z,9.20
2019-03-28T21:28:46.607Z,9.10
2019-03-28T21:31:10.244Z,8.98
2019-03-28T21:33:43.612Z,8.89
2019-03-28T21:36:29.080Z,8.83
2019-03-28T21:38:52.098Z,8.71
2019-03-28T21:41:25.652Z,8.68
2019-03-28T21:43:59.087Z,8.66
2019-03-28T21:46:32.908Z,8.55
2019-03-28T21:49:06.668Z,8.57
2019-03-28T21:51:40.004Z,8.44
2019-03-28T21:54:14.542Z,8.34
2019-03-28T21:56:48.002Z,8.26
2019-03-28T21:59:22.284Z,8.37
2019-03-28T22:01:56.390Z,8.34
2019-03-28T22:04:29.764Z,8.26
2019-03-28T22:07:03.183Z,8.15
2019-03-28T22:09:39.581Z,7.97
2019-03-28T22:12:11.765Z,7.68
2019-03-28T22:14:47.993Z,7.57
2019-03-28T22:17:20.306Z,7.36
2019-03-28T22:19:53.654Z,7.42
2019-03-28T22:22:27.065Z,7.67
2019-03-28T22:25:00.523Z,7.57
2019-03-28T22:27:33.882Z,7.62
2019-03-28T22:30:08.382Z,7.60
2019-03-28T22:32:41.807Z,7.67
2019-03-28T22:35:15.219Z,7.66
2019-03-28T22:37:48.656Z,7.62
2019-03-28T22:40:22.120Z,7.65
2019-03-28T22:42:58.040Z,7.56
2019-03-28T22:45:31.397Z,7.42
2019-03-28T22:48:11.100Z,7.28
2019-03-28T22:50:40.267Z,7.14
2019-03-28T22:53:13.683Z,7.07
2019-03-28T22:55:47.109Z,6.98
2019-03-28T22:58:20.461Z,7.04
2019-03-28T23:00:55.503Z,7.23
2019-03-28T23:03:28.854Z,7.21
2019-03-28T23:06:02.268Z,7.23
2019-03-28T23:08:35.606Z,7.31
2019-03-28T23:11:09.067Z,7.27
2019-03-28T23:13:42.430Z,7.21
2019-03-28T23:16:15.773Z,7.19
2019-03-28T23:18:50.131Z,7.17
2019-03-28T23:21:23.536Z,7.13
2019-03-28T23:23:56.899Z,7.07
2019-03-28T23:26:30.376Z,6.95
2019-03-28T23:29:03.751Z,6.82
2019-03-28T23:31:37.103Z,6.86
2019-03-28T23:34:10.466Z,6.78
2019-03-28T23:36:43.813Z,6.81
2019-03-28T23:39:17.285Z,6.77
2019-03-28T23:41:50.721Z,6.79
2019-03-28T23:44:24.067Z,6.87
2019-03-28T23:46:57.417Z,6.89
2019-03-28T23:49:30.768Z,6.72
2019-03-28T23:52:04.101Z,6.64
2019-03-28T23:54:37.473Z,6.52
2019-03-28T23:57:10.802Z,6.37
2019-03-28T23:59:44.173Z,6.42
